Time;durP1;ratioP1;P1;durP2;ratioP2;P2;SDS_P1;SDS_P2;PMS_P1;PMS_P2;Temp;Humidity;BMP_temperature;BMP_pressure;BME280_temperature;BME280_humidity;BME280_pressure;Samples;Min_cycle;Max_cycle;Signal;HPM_P1;HPM_P2
2022/10/23 00:00:34;;;;;;;1999.90;999.90;;;18.90;99.90;;;;;;5013709;28;20040;-84
2022/10/23 00:02:59;;;;;;;1999.90;999.90;;;18.90;99.90;;;;;;5030666;28;20056;-84
2022/10/23 00:05:26;;;;;;;1999.90;999.90;;;18.90;99.90;;;;;;5031287;28;20576;-84
2022/10/23 00:07:54;;;;;;;1999.90;999.90;;;18.90;99.90;;;;;;5032128;28;20026;-84
2022/10/23 00:10:21;;;;;;;1999.90;999.90;;;19.00;99.90;;;;;;5031543;28;20036;-84
2022/10/23 00:12:47;;;;;;;1999.90;999.90;;;19.00;99.90;;;;;;5031670;28;20476;-84
2022/10/23 00:15:15;;;;;;;1999.90;999.90;;;19.00;99.90;;;;;;5031814;28;20033;-84
2022/10/23 00:17:41;;;;;;;1999.90;999.90;;;18.90;99.90;;;;;;5031678;28;20086;-84
2022/10/23 00:20:08;;;;;;;1999.90;999.90;;;18.90;99.90;;;;;;5049447;28;20501;-84
2022/10/23 00:22:34;;;;;;;1999.90;999.90;;;18.90;99.90;;;;;;5053705;28;20025;-84
2022/10/23 00:25:00;;;;;;;1999.90;999.90;;;19.00;99.90;;;;;;5054975;28;20040;-84
2022/10/23 00:27:26;;;;;;;1999.90;999.90;;;18.90;99.90;;;;;;5056212;28;20036;-84
2022/10/23 00:29:51;;;;;;;1999.90;999.90;;;19.00;99.90;;;;;;5038077;28;20561;-84
2022/10/23 00:32:17;;;;;;;1999.90;999.90;;;18.90;99.90;;;;;;5038475;28;20064;-85
2022/10/23 00:34:43;;;;;;;1999.90;999.90;;;19.00;99.90;;;;;;5056890;28;20104;-84
2022/10/23 00:37:08;;;;;;;1999.90;999.90;;;19.00;99.90;;;;;;5055547;28;20057;-84
2022/10/23 00:39:34;;;;;;;1999.90;999.90;;;18.90;99.90;;;;;;5046927;28;20494;-84
2022/10/23 00:41:59;;;;;;;1999.90;999.90;;;18.90;99.90;;;;;;5036027;28;20017;-84
2022/10/23 00:44:28;;;;;;;1999.90;999.90;;;18.90;99.90;;;;;;5035383;28;20029;-84
2022/10/23 00:46:54;;;;;;;1999.90;999.90;;;18.90;99.90;;;;;;5036115;28;20109;-84
2022/10/23 00:49:21;;;;;;;1999.90;999.90;;;18.90;99.90;;;;;;5035856;28;20112;-84
2022/10/23 00:51:52;;;;;;;1999.90;999.90;;;18.90;99.90;;;;;;5033569;28;20459;-84
2022/10/23 00:54:22;;;;;;;1999.90;999.90;;;18.80;99.90;;;;;;5003133;28;20026;-85
2022/10/23 00:56:48;;;;;;;1999.90;999.90;;;18.80;99.90;;;;;;5023930;28;20061;-84
2022/10/23 00:59:14;;;;;;;1999.90;999.90;;;18.80;99.90;;;;;;5034427;28;20044;-84
2022/10/23 01:01:40;;;;;;;1999.90;999.90;;;18.80;99.90;;;;;;5034645;28;20021;-84
2022/10/23 01:04:06;;;;;;;1999.90;999.90;;;18.70;99.90;;;;;;5033739;28;20508;-84
2022/10/23 01:06:42;;;;;;;1999.90;999.90;;;18.60;99.90;;;;;;5034137;28;20064;-84
2022/10/23 01:09:44;;;;;;;1999.90;999.90;;;18.60;99.90;;;;;;5016347;28;20033;-84
2022/10/23 01:12:22;;;;;;;1999.90;999.90;;;18.50;99.90;;;;;;5016333;28;20447;-84
2022/10/23 01:15:31;;;;;;;1999.90;999.90;;;18.50;99.90;;;;;;5034582;28;20477;-84
2022/10/23 01:18:09;;;;;;;1999.90;999.90;;;18.50;99.90;;;;;;5038101;28;20175;-84
2022/10/23 01:21:13;;;;;;;1999.90;999.90;;;18.50;99.90;;;;;;5035045;28;20147;-85
2022/10/23 01:23:48;;;;;;;1999.90;999.90;;;18.50;99.90;;;;;;4972906;28;20026;-84
2022/10/23 01:26:23;;;;;;;1999.90;999.90;;;18.50;99.90;;;;;;4973791;28;20035;-84
2022/10/23 01:29:00;;;;;;;1999.90;999.90;;;18.50;99.90;;;;;;5021264;28;20029;-84
2022/10/23 01:31:37;;;;;;;1999.90;999.90;;;18.50;99.90;;;;;;5054276;28;20447;-84
2022/10/23 01:34:21;;;;;;;1999.90;999.90;;;18.60;99.90;;;;;;5054078;28;20017;-85
2022/10/23 01:36:49;;;;;;;1999.90;999.90;;;18.60;99.90;;;;;;5053893;28;20388;-84
2022/10/23 01:39:24;;;;;;;1999.90;999.90;;;18.70;99.90;;;;;;5030229;28;20559;-84
2022/10/23 01:42:10;;;;;;;1999.90;999.90;;;18.70;99.90;;;;;;5015227;28;20053;-85
2022/10/23 01:44:48;;;;;;;1999.90;999.90;;;18.70;99.90;;;;;;5014378;28;20061;-84
2022/10/23 01:47:17;;;;;;;1999.90;999.90;;;18.70;99.90;;;;;;5014035;28;20034;-85
2022/10/23 01:49:46;;;;;;;1999.90;999.90;;;18.60;99.90;;;;;;5013831;28;20096;-84
2022/10/23 01:52:14;;;;;;;1999.90;999.90;;;18.70;99.90;;;;;;5014047;28;20120;-84
2022/10/23 01:54:43;;;;;;;1999.90;999.90;;;18.60;99.90;;;;;;5031303;28;20025;-84
2022/10/23 01:57:15;;;;;;;1999.90;999.90;;;18.60;99.90;;;;;;5015632;28;20036;-84
2022/10/23 01:59:45;;;;;;;1999.90;999.90;;;18.70;99.90;;;;;;5016359;28;20032;-85
2022/10/23 02:02:13;;;;;;;1999.90;999.90;;;18.70;99.90;;;;;;5033873;28;20029;-85
2022/10/23 02:04:50;;;;;;;1999.90;999.90;;;18.60;99.90;;;;;;5033507;28;20083;-84
2022/10/23 02:07:15;;;;;;;1999.90;999.90;;;18.60;99.90;;;;;;5016628;28;20471;-84
2022/10/23 02:09:41;;;;;;;1999.90;999.90;;;18.60;99.90;;;;;;5034154;28;20021;-84
2022/10/23 02:12:12;;;;;;;1999.90;999.90;;;18.60;99.90;;;;;;5016363;28;20029;-84
2022/10/23 02:14:43;;;;;;;1999.90;999.90;;;18.50;99.90;;;;;;5034860;28;20036;-84
2022/10/23 02:17:43;;;;;;;1999.90;999.90;;;18.50;99.90;;;;;;5015679;28;20033;-84
2022/10/23 02:20:27;;;;;;;1999.90;999.90;;;18.50;99.90;;;;;;5014059;28;20022;-84
2022/10/23 02:23:21;;;;;;;1999.90;999.90;;;18.40;99.90;;;;;;5014076;28;20029;-84
2022/10/23 02:25:58;;;;;;;1999.90;999.90;;;18.40;99.90;;;;;;5006546;28;20040;-84
2022/10/23 02:28:44;;;;;;;1999.90;999.90;;;18.40;99.90;;;;;;5032189;28;20022;-84
2022/10/23 02:31:15;;;;;;;1999.90;999.90;;;18.30;99.90;;;;;;5030924;28;20025;-84
2022/10/23 02:33:42;;;;;;;1999.90;999.90;;;18.20;99.90;;;;;;5013608;28;20056;-84
2022/10/23 02:36:08;;;;;;;1999.90;999.90;;;18.30;99.90;;;;;;5013385;28;20057;-84
2022/10/23 02:38:42;;;;;;;1999.90;999.90;;;18.30;99.90;;;;;;5040492;28;20079;-84
2022/10/23 02:41:36;;;;;;;1999.90;999.90;;;18.30;99.90;;;;;;5028591;28;20044;-85
2022/10/23 02:44:19;;;;;;;1999.90;999.90;;;18.20;99.90;;;;;;5015875;28;20109;-85
2022/10/23 02:46:51;;;;;;;1999.90;999.90;;;18.20;99.90;;;;;;5033546;28;20473;-84
2022/10/23 02:49:29;;;;;;;1999.90;999.90;;;18.20;99.90;;;;;;5033375;28;20551;-84
2022/10/23 02:52:19;;;;;;;1999.90;999.90;;;18.20;99.90;;;;;;5032794;28;20056;-84
2022/10/23 02:55:04;;;;;;;1999.90;999.90;;;18.20;99.90;;;;;;5034021;28;20570;-85
2022/10/23 02:57:53;;;;;;;1999.90;999.90;;;18.20;99.90;;;;;;5031544;28;20025;-84
2022/10/23 03:00:21;;;;;;;1999.90;999.90;;;18.20;99.90;;;;;;5014564;28;20022;-84
2022/10/23 03:03:00;;;;;;;1999.90;999.90;;;18.30;99.90;;;;;;5014376;28;20109;-84
2022/10/23 03:05:32;;;;;;;1999.90;999.90;;;18.40;99.90;;;;;;5031244;28;20489;-84
2022/10/23 03:07:58;;;;;;;1999.90;999.90;;;18.40;99.90;;;;;;5032366;28;20025;-84
2022/10/23 03:10:24;;;;;;;1999.90;999.90;;;18.50;99.90;;;;;;5032382;28;20453;-84
2022/10/23 03:12:49;;;;;;;1999.90;999.90;;;18.60;99.90;;;;;;5032106;28;20622;-84
2022/10/23 03:15:16;;;;;;;1999.90;999.90;;;18.70;99.90;;;;;;5032151;28;20120;-84
2022/10/23 03:17:42;;;;;;;1999.90;999.90;;;18.70;99.90;;;;;;5032504;28;20022;-84
2022/10/23 03:20:09;;;;;;;1999.90;999.90;;;18.70;99.90;;;;;;5031986;28;20083;-84
2022/10/23 03:22:34;;;;;;;1999.90;999.90;;;18.70;99.90;;;;;;5031910;28;20029;-84
2022/10/23 03:25:00;;;;;;;1999.90;999.90;;;18.70;99.90;;;;;;5031990;28;20029;-84
2022/10/23 03:27:25;;;;;;;1999.90;999.90;;;18.60;99.90;;;;;;5014547;28;20025;-84
2022/10/23 03:29:51;;;;;;;1999.90;999.90;;;18.50;99.90;;;;;;5032339;28;20029;-84
2022/10/23 03:32:17;;;;;;;1999.90;999.90;;;18.40;99.90;;;;;;5021053;28;20490;-84
2022/10/23 03:34:42;;;;;;;1999.90;999.90;;;18.40;99.90;;;;;;5012412;28;20030;-84
2022/10/23 03:37:08;;;;;;;1999.90;999.90;;;18.40;99.90;;;;;;5019402;28;20036;-84
2022/10/23 03:39:34;;;;;;;1999.90;999.90;;;18.30;99.90;;;;;;5048355;28;20400;-84
2022/10/23 03:41:59;;;;;;;1999.90;999.90;;;18.30;99.90;;;;;;5032222;28;20026;-84
2022/10/23 03:44:25;;;;;;;1999.90;999.90;;;18.20;99.90;;;;;;5031907;28;20021;-84
2022/10/23 03:46:51;;;;;;;1999.90;999.90;;;18.30;99.90;;;;;;5013698;28;20030;-84
2022/10/23 03:49:16;;;;;;;1999.90;999.90;;;18.30;99.90;;;;;;5031959;28;20025;-84
2022/10/23 03:51:43;;;;;;;1999.90;999.90;;;18.30;99.90;;;;;;5031767;28;20046;-84
2022/10/23 03:54:09;;;;;;;1999.90;999.90;;;18.30;99.90;;;;;;5032357;28;20489;-85
2022/10/23 03:56:35;;;;;;;1999.90;999.90;;;18.30;99.90;;;;;;5015389;28;20120;-85
2022/10/23 03:59:00;;;;;;;1999.90;999.90;;;18.30;99.90;;;;;;5017357;28;20120;-84
2022/10/23 04:01:26;;;;;;;1999.90;999.90;;;18.50;99.90;;;;;;5035617;28;20037;-84
2022/10/23 04:03:52;;;;;;;1999.90;999.90;;;18.60;99.90;;;;;;5035891;28;20095;-84
2022/10/23 04:06:17;;;;;;;1999.90;999.90;;;18.70;99.90;;;;;;5034677;28;20048;-84
2022/10/23 04:08:43;;;;;;;1999.90;999.90;;;18.70;99.90;;;;;;5017674;28;20025;-84
2022/10/23 04:11:09;;;;;;;1999.90;999.90;;;18.70;99.90;;;;;;5035400;28;20510;-84
2022/10/23 04:13:35;;;;;;;1999.90;999.90;;;18.70;99.90;;;;;;5017720;28;20030;-84
2022/10/23 04:16:01;;;;;;;1999.90;999.90;;;18.70;99.90;;;;;;5035356;28;20025;-84
2022/10/23 04:18:26;;;;;;;1999.90;999.90;;;18.60;99.90;;;;;;5015907;28;20037;-84
2022/10/23 04:20:52;;;;;;;1999.90;999.90;;;18.60;99.90;;;;;;5034864;28;20075;-84
2022/10/23 04:23:18;;;;;;;1999.90;999.90;;;18.50;99.90;;;;;;5017385;28;20111;-84
2022/10/23 04:25:44;;;;;;;1999.90;999.90;;;18.50;99.90;;;;;;5017275;28;20025;-84
2022/10/23 04:28:10;;;;;;;1999.90;999.90;;;18.50;99.90;;;;;;5035376;28;20029;-84
2022/10/23 04:30:35;;;;;;;1999.90;999.90;;;18.40;99.90;;;;;;5017555;28;20021;-84
2022/10/23 04:33:01;;;;;;;1999.90;999.90;;;18.40;99.90;;;;;;5018027;28;20409;-84
2022/10/23 04:35:26;;;;;;;1999.90;999.90;;;18.30;99.90;;;;;;5015151;28;20026;-84
2022/10/23 04:37:52;;;;;;;1999.90;999.90;;;18.30;99.90;;;;;;5028080;28;20399;-84
2022/10/23 04:40:17;;;;;;;1999.90;999.90;;;18.30;99.90;;;;;;5035130;28;20561;-84
2022/10/23 04:42:43;;;;;;;1999.90;999.90;;;18.20;99.90;;;;;;5035784;28;20038;-84
2022/10/23 04:45:09;;;;;;;1999.90;999.90;;;18.20;99.90;;;;;;5017330;28;20036;-84
2022/10/23 04:47:35;;;;;;;1999.90;999.90;;;18.30;99.90;;;;;;5035237;28;20417;-84
2022/10/23 04:50:00;;;;;;;1999.90;999.90;;;18.30;99.90;;;;;;5035412;28;20026;-84
2022/10/23 04:52:26;;;;;;;1999.90;999.90;;;18.30;99.90;;;;;;5034855;28;20409;-84
2022/10/23 04:54:52;;;;;;;1999.90;999.90;;;18.30;99.90;;;;;;5034294;28;20486;-84
2022/10/23 04:57:17;;;;;;;1999.90;999.90;;;18.30;99.90;;;;;;5034203;28;20077;-84
2022/10/23 04:59:43;;;;;;;1999.90;999.90;;;18.30;99.90;;;;;;5034436;28;20036;-84
2022/10/23 05:02:08;;;;;;;1999.90;999.90;;;18.40;99.90;;;;;;5034931;28;20507;-84
2022/10/23 05:04:34;;;;;;;1999.90;999.90;;;18.40;99.90;;;;;;5043438;28;20033;-84
2022/10/23 05:07:00;;;;;;;1999.90;999.90;;;18.30;99.90;;;;;;5053697;28;20113;-84
2022/10/23 05:09:25;;;;;;;1999.90;999.90;;;18.30;99.90;;;;;;5054451;28;20139;-84
2022/10/23 05:11:51;;;;;;;1999.90;999.90;;;18.30;99.90;;;;;;5054385;28;20017;-84
2022/10/23 05:14:16;;;;;;;1999.90;999.90;;;18.30;99.90;;;;;;5054439;28;20029;-84
2022/10/23 05:16:47;;;;;;;1999.90;999.90;;;18.30;99.90;;;;;;5052283;28;20068;-84
2022/10/23 05:19:19;;;;;;;1999.90;999.90;;;18.30;99.90;;;;;;5053709;28;20025;-84
2022/10/23 05:21:48;;;;;;;1999.90;999.90;;;18.30;99.90;;;;;;5053981;28;20025;-84
2022/10/23 05:24:13;;;;;;;1999.90;999.90;;;18.20;99.90;;;;;;5054477;28;20454;-84
2022/10/23 05:26:39;;;;;;;1999.90;999.90;;;18.30;99.90;;;;;;5054189;28;20021;-84
2022/10/23 05:29:05;;;;;;;1999.90;999.90;;;18.30;99.90;;;;;;5053837;28;20040;-84
2022/10/23 05:31:34;;;;;;;1999.90;999.90;;;18.20;99.90;;;;;;5044901;28;20072;-84
2022/10/23 05:34:00;;;;;;;1999.90;999.90;;;18.20;99.90;;;;;;5014292;28;20044;-84
2022/10/23 05:36:26;;;;;;;1999.90;999.90;;;18.20;99.90;;;;;;5026987;28;20025;-85
2022/10/23 05:38:52;;;;;;;1999.90;999.90;;;18.30;99.90;;;;;;5052214;28;20045;-84
2022/10/23 05:41:18;;;;;;;1999.90;999.90;;;18.30;99.90;;;;;;5033297;28;20457;-84
2022/10/23 05:43:45;;;;;;;1999.90;999.90;;;18.20;99.90;;;;;;5034809;28;20079;-84
2022/10/23 05:46:11;;;;;;;1999.90;999.90;;;18.20;99.90;;;;;;5034352;28;20085;-84
2022/10/23 05:48:36;;;;;;;1999.90;999.90;;;18.30;99.90;;;;;;5016665;28;20029;-84
2022/10/23 05:51:07;;;;;;;1999.90;999.90;;;18.30;99.90;;;;;;5033651;28;20026;-85
2022/10/23 05:53:33;;;;;;;1999.90;999.90;;;18.40;99.90;;;;;;5033450;28;20049;-84
2022/10/23 05:56:06;;;;;;;1999.90;999.90;;;18.30;99.90;;;;;;5015191;28;20022;-84
2022/10/23 05:58:31;;;;;;;;;;;18.30;99.90;;;;;;5014182;28;20026;-84
2022/10/23 06:00:57;;;;;;;1999.90;999.90;;;18.30;99.90;;;;;;5013779;28;19916;-84
2022/10/23 06:03:23;;;;;;;1999.90;999.90;;;18.40;99.90;;;;;;5013499;28;20080;-84
2022/10/23 06:05:50;;;;;;;1999.90;999.90;;;18.40;99.90;;;;;;5013452;28;20104;-84
2022/10/23 06:08:16;;;;;;;1999.90;999.90;;;18.40;99.90;;;;;;5013174;28;20455;-84
2022/10/23 06:10:42;;;;;;;1999.90;999.90;;;18.30;99.90;;;;;;4995636;28;20113;-84
2022/10/23 06:13:07;;;;;;;1999.90;999.90;;;18.30;99.90;;;;;;5013633;28;20109;-84
2022/10/23 06:15:33;;;;;;;1999.90;999.90;;;18.30;99.90;;;;;;5013824;28;20547;-84
2022/10/23 06:18:03;;;;;;;1999.90;999.90;;;18.30;99.90;;;;;;5031579;28;20553;-84
2022/10/23 06:20:28;;;;;;;1999.90;999.90;;;18.30;99.90;;;;;;5032058;28;20034;-84
2022/10/23 06:22:54;;;;;;;1999.90;999.90;;;18.30;99.90;;;;;;5033226;28;20488;-84
2022/10/23 06:25:19;;;;;;;1999.90;999.90;;;18.30;99.90;;;;;;5032680;28;20029;-84
2022/10/23 06:27:45;;;;;;;1999.90;999.90;;;18.30;99.90;;;;;;5032978;28;20053;-84
2022/10/23 06:30:11;;;;;;;1999.90;999.90;;;18.30;99.90;;;;;;5033097;28;20033;-84
2022/10/23 06:32:37;;;;;;;1999.90;999.90;;;18.30;99.90;;;;;;5001433;28;20178;-84
2022/10/23 06:35:03;;;;;;;1999.90;999.90;;;18.30;99.90;;;;;;5013120;28;20026;-84
2022/10/23 06:37:29;;;;;;;1999.90;999.90;;;18.30;99.90;;;;;;4995056;28;20076;-84
2022/10/23 06:39:55;;;;;;;1999.90;999.90;;;18.30;99.90;;;;;;5022538;28;20041;-84
2022/10/23 06:42:20;;;;;;;1999.90;999.90;;;18.30;99.90;;;;;;5032998;28;20057;-84
2022/10/23 06:44:46;;;;;;;1999.90;999.90;;;18.30;99.90;;;;;;5032756;28;20033;-84
2022/10/23 06:47:13;;;;;;;1999.90;999.90;;;18.30;99.90;;;;;;5032570;28;20025;-84
2022/10/23 06:49:38;;;;;;;1999.90;999.90;;;18.40;99.90;;;;;;5014882;28;20048;-84
2022/10/23 06:52:04;;;;;;;1999.90;999.90;;;18.40;99.90;;;;;;5032584;28;20111;-84
2022/10/23 06:54:30;;;;;;;1999.90;999.90;;;18.40;99.90;;;;;;5032818;28;20444;-84
2022/10/23 06:56:55;;;;;;;1999.90;999.90;;;18.40;99.90;;;;;;5031774;28;20036;-85
2022/10/23 06:59:21;;;;;;;1999.90;999.90;;;18.40;99.90;;;;;;5032450;28;20037;-84
2022/10/23 07:01:46;;;;;;;1999.90;999.90;;;18.40;99.90;;;;;;5014740;28;20032;-84
2022/10/23 07:04:13;;;;;;;1999.90;999.90;;;18.40;99.90;;;;;;5032518;28;20025;-84
2022/10/23 07:06:39;;;;;;;1999.90;999.90;;;18.40;99.90;;;;;;5014474;28;20029;-84
2022/10/23 07:09:05;;;;;;;1999.90;999.90;;;18.40;99.90;;;;;;5031161;28;20076;-84
2022/10/23 07:11:31;;;;;;;1999.90;999.90;;;18.40;99.90;;;;;;4995740;28;20500;-84
2022/10/23 07:13:57;;;;;;;1999.90;999.90;;;18.50;99.90;;;;;;5018765;28;20148;-84
2022/10/23 07:16:23;;;;;;;1999.90;999.90;;;18.60;99.90;;;;;;5036460;28;20132;-84
2022/10/23 07:18:58;;;;;;;1999.90;999.90;;;18.60;99.90;;;;;;5032218;28;20036;-85
2022/10/23 07:21:25;;;;;;;1999.90;999.90;;;18.60;99.90;;;;;;5030514;28;20503;-84
2022/10/23 07:23:51;;;;;;;1999.90;999.90;;;18.70;99.90;;;;;;5012936;28;20029;-84
2022/10/23 07:26:17;;;;;;;1999.90;999.90;;;18.70;99.90;;;;;;5014236;28;20150;-85
2022/10/23 07:28:45;;;;;;;1999.90;999.90;;;18.80;99.90;;;;;;5032047;28;20022;-84
2022/10/23 07:31:11;;;;;;;1999.90;999.90;;;18.90;99.90;;;;;;5032219;28;20028;-84
2022/10/23 07:33:37;;;;;;;1999.90;999.90;;;18.90;99.90;;;;;;5051544;28;20024;-84
2022/10/23 07:36:06;;;;;;;1999.90;999.90;;;19.00;99.90;;;;;;5051639;28;20025;-84
2022/10/23 07:38:33;;;;;;;1999.90;999.90;;;19.00;99.90;;;;;;5045886;28;20496;-85
2022/10/23 07:41:00;;;;;;;1999.90;999.90;;;19.00;99.90;;;;;;5031180;28;20044;-85
2022/10/23 07:43:26;;;;;;;1999.90;999.90;;;19.00;99.90;;;;;;5013898;28;20053;-85
2022/10/23 07:45:52;;;;;;;1999.90;999.90;;;19.00;99.90;;;;;;5013850;28;20037;-84
2022/10/23 07:48:19;;;;;;;1999.90;999.90;;;19.00;99.90;;;;;;5031983;28;20028;-85
2022/10/23 07:50:45;;;;;;;1999.90;999.90;;;19.10;99.90;;;;;;5031648;28;20632;-85
2022/10/23 07:53:17;;;;;;;1999.90;999.90;;;19.10;99.90;;;;;;5013543;28;20045;-85
2022/10/23 07:55:53;;;;;;;1999.90;999.90;;;19.20;99.90;;;;;;5033997;28;20044;-84
2022/10/23 07:58:19;;;;;;;1999.90;999.90;;;19.30;99.90;;;;;;5051517;28;20530;-84
2022/10/23 08:00:51;;;;;;;1999.90;999.90;;;19.40;99.90;;;;;;5033425;28;20057;-85
2022/10/23 08:03:17;;;;;;;1999.90;999.90;;;19.40;99.90;;;;;;5033536;28;20033;-85
2022/10/23 08:05:43;;;;;;;1999.90;999.90;;;19.30;99.90;;;;;;5033559;28;20059;-85
2022/10/23 08:08:08;;;;;;;1999.90;999.90;;;19.30;99.90;;;;;;5051441;28;20052;-85
2022/10/23 08:10:34;;;;;;;1999.90;999.90;;;19.30;99.90;;;;;;5029446;28;20022;-84
2022/10/23 08:13:00;;;;;;;1999.90;999.90;;;19.40;99.90;;;;;;5011470;28;20030;-84
2022/10/23 08:15:25;;;;;;;1999.90;999.90;;;19.40;99.90;;;;;;5014578;28;20083;-84
2022/10/23 08:17:51;;;;;;;1999.90;999.90;;;19.50;99.90;;;;;;5031467;28;20412;-85
2022/10/23 08:20:17;;;;;;;1999.90;999.90;;;19.60;99.90;;;;;;5031470;28;20108;-84
2022/10/23 08:22:42;;;;;;;1999.90;999.90;;;19.90;99.90;;;;;;5030988;28;20530;-85
2022/10/23 08:25:08;;;;;;;1999.90;999.90;;;20.10;99.90;;;;;;5031149;28;20074;-84
2022/10/23 08:27:34;;;;;;;1999.90;999.90;;;20.20;99.90;;;;;;5031272;28;20025;-85
2022/10/23 08:29:59;;;;;;;1999.90;999.90;;;20.30;99.90;;;;;;5031427;28;20543;-85
2022/10/23 08:32:29;;;;;;;1999.90;999.90;;;20.50;99.90;;;;;;5031552;28;20025;-85
2022/10/23 08:34:54;;;;;;;1999.90;999.90;;;20.60;99.90;;;;;;5031679;28;20014;-84
2022/10/23 08:37:20;;;;;;;1999.90;999.90;;;20.70;99.90;;;;;;5032276;28;20082;-86
2022/10/23 08:39:46;;;;;;;1999.90;999.90;;;20.70;99.90;;;;;;5041758;28;20037;-85
2022/10/23 08:42:20;;;;;;;1999.90;999.90;;;20.80;99.90;;;;;;5031225;28;20116;-85
2022/10/23 08:45:06;;;;;;;1999.90;999.90;;;20.80;99.90;;;;;;5017151;28;20523;-84
2022/10/23 08:47:41;;;;;;;1999.90;999.90;;;20.80;99.90;;;;;;5008119;28;20029;-85
2022/10/23 08:50:47;;;;;;;1999.90;999.90;;;20.80;99.90;;;;;;5015055;28;20022;-84
2022/10/23 08:53:35;;;;;;;1999.90;999.90;;;20.90;99.90;;;;;;4938039;29;20051;-84
2022/10/23 08:56:13;;;;;;;1999.90;999.90;;;20.90;99.90;;;;;;4958694;28;20111;-84
2022/10/23 08:58:44;;;;;;;1999.90;999.90;;;20.90;99.90;;;;;;4993069;28;20482;-84
2022/10/23 09:01:29;;;;;;;1999.90;999.90;;;20.90;99.90;;;;;;4976613;28;20425;-84
2022/10/23 09:03:55;;;;;;;1999.90;999.90;;;21.00;99.90;;;;;;4993369;28;20077;-85
2022/10/23 09:06:40;;;;;;;1999.90;999.90;;;21.00;99.90;;;;;;4992766;28;20058;-86
2022/10/23 09:09:11;;;;;;;1999.90;999.90;;;21.00;99.90;;;;;;4993025;28;20568;-85
2022/10/23 09:11:59;;;;;;;1999.90;999.90;;;20.90;99.90;;;;;;4979528;28;20031;-85
2022/10/23 09:14:45;;;;;;;1999.90;999.90;;;21.00;99.90;;;;;;4973676;28;20042;-85
2022/10/23 09:17:29;;;;;;;1999.90;999.90;;;21.10;99.90;;;;;;4970496;28;20046;-84
2022/10/23 09:20:19;;;;;;;1999.90;999.90;;;21.20;99.90;;;;;;4973078;28;20047;-85
2022/10/23 09:22:47;;;;;;;1999.90;999.90;;;21.40;99.90;;;;;;4973115;28;20026;-85
2022/10/23 09:25:36;;;;;;;1999.90;999.90;;;21.50;99.90;;;;;;4972961;28;20030;-85
2022/10/23 09:28:03;;;;;;;1999.90;999.90;;;21.50;99.90;;;;;;5024762;28;20029;-84
2022/10/23 09:30:37;;;;;;;1999.90;999.90;;;21.50;99.90;;;;;;5034127;28;20520;-85
2022/10/23 09:33:13;;;;;;;1999.90;999.90;;;21.50;99.90;;;;;;5033965;28;20027;-86
2022/10/23 09:36:00;;;;;;;1999.90;999.90;;;21.60;99.90;;;;;;5014924;28;20044;-86
2022/10/23 09:38:38;;;;;;;1999.90;999.90;;;21.70;99.90;;;;;;5015990;28;20116;-84
2022/10/23 09:41:12;;;;;;;1999.90;999.90;;;21.70;99.90;;;;;;5033589;28;20022;-86
2022/10/23 09:43:37;;;;;;;1999.90;999.90;;;21.70;99.90;;;;;;5033873;28;20029;-84
2022/10/23 09:46:05;;;;;;;1999.90;999.90;;;21.80;99.90;;;;;;5033580;28;20036;-84
2022/10/23 09:48:32;;;;;;;1999.90;999.90;;;21.80;99.90;;;;;;5015835;28;20061;-85
2022/10/23 09:51:00;;;;;;;1999.90;999.90;;;21.80;99.90;;;;;;5033551;28;20022;-88
2022/10/23 09:53:36;;;;;;;1999.90;999.90;;;21.80;99.90;;;;;;5015298;28;20525;-88
2022/10/23 09:56:19;;;;;;;1999.90;999.90;;;21.80;99.90;;;;;;5031730;28;20033;-88
2022/10/23 09:58:56;;;;;;;1999.90;999.90;;;21.80;99.90;;;;;;5033458;28;20031;-89
2022/10/23 10:01:25;;;;;;;1999.90;999.90;;;21.90;99.90;;;;;;5033214;28;20033;-85
2022/10/23 10:03:51;;;;;;;1999.90;999.90;;;21.90;99.90;;;;;;5015418;28;20096;-85
2022/10/23 10:06:26;;;;;;;1999.90;999.90;;;21.90;99.90;;;;;;5015235;28;20025;-86
2022/10/23 10:08:59;;;;;;;1999.90;999.90;;;21.90;99.90;;;;;;5033338;28;20021;-85
2022/10/23 10:11:27;;;;;;;1999.90;999.90;;;21.90;99.90;;;;;;5021475;28;20077;-86
2022/10/23 10:14:05;;;;;;;1999.90;999.90;;;21.90;99.90;;;;;;4996060;28;20022;-86
2022/10/23 10:16:47;;;;;;;1999.90;999.90;;;21.80;99.90;;;;;;5031628;28;20037;-87
2022/10/23 10:19:33;;;;;;;1999.90;999.90;;;21.80;99.90;;;;;;5033311;28;20029;-86
2022/10/23 10:22:07;;;;;;;1999.90;999.90;;;21.80;99.90;;;;;;5013626;28;20037;-85
2022/10/23 10:25:16;;;;;;;1999.90;999.90;;;21.80;99.90;;;;;;5032944;28;20056;-86
2022/10/23 10:27:50;;;;;;;1999.90;999.90;;;21.70;99.90;;;;;;5005018;28;20037;-86
2022/10/23 10:30:21;;;;;;;1999.90;999.90;;;21.80;99.90;;;;;;5033080;28;20075;-86
2022/10/23 10:33:17;;;;;;;1999.90;999.90;;;21.70;99.90;;;;;;5032955;28;20104;-88
2022/10/23 10:35:55;;;;;;;1999.90;999.90;;;21.80;99.90;;;;;;5031896;28;20124;-86
2022/10/23 10:38:43;;;;;;;1999.90;999.90;;;21.80;99.90;;;;;;5032726;28;20085;-86
2022/10/23 10:41:27;;;;;;;1999.90;999.90;;;21.90;99.90;;;;;;5027457;28;20039;-86
2022/10/23 10:44:11;;;;;;;1999.90;999.90;;;22.30;99.90;;;;;;5032766;28;20411;-87
2022/10/23 10:46:54;;;;;;;1999.90;999.90;;;22.40;99.90;;;;;;5032731;28;20110;-88
2022/10/23 10:49:47;;;;;;;1999.90;999.90;;;22.90;99.90;;;;;;5031743;28;20040;-88
2022/10/23 10:52:29;;;;;;;1999.90;999.90;;;22.80;99.90;;;;;;5014479;28;20072;-85
2022/10/23 10:55:22;;;;;;;1999.90;999.90;;;22.80;99.90;;;;;;5038245;28;20029;-85
2022/10/23 10:58:14;;;;;;;1999.90;999.90;;;23.00;99.90;;;;;;5052205;28;20484;-86
2022/10/23 11:00:40;;;;;;;1999.90;999.90;;;23.00;99.90;;;;;;5052148;28;20034;-87
2022/10/23 11:03:41;;;;;;;1999.90;999.90;;;23.00;99.90;;;;;;5052153;28;20091;-87
2022/10/23 11:06:14;;;;;;;1999.90;999.90;;;22.70;99.90;;;;;;5051725;28;20028;-86
2022/10/23 11:08:40;;;;;;;1999.90;999.90;;;22.80;99.90;;;;;;5052201;28;20028;-86
2022/10/23 11:11:15;;;;;;;1999.90;999.90;;;23.00;99.90;;;;;;5022307;28;20042;-86
2022/10/23 11:13:42;;;;;;;1999.90;999.90;;;23.00;99.90;;;;;;5011376;28;20030;-83
2022/10/23 11:16:18;;;;;;;1999.90;999.90;;;23.20;99.90;;;;;;5012115;28;20044;-86
2022/10/23 11:19:11;;;;;;;1999.90;999.90;;;23.20;99.90;;;;;;5032041;28;20053;-86
2022/10/23 11:21:51;;;;;;;1999.90;999.90;;;23.20;99.90;;;;;;5000595;28;20052;-86
2022/10/23 11:24:39;;;;;;;1999.90;999.90;;;23.20;99.90;;;;;;5014134;28;20171;-87
2022/10/23 11:27:29;;;;;;;1999.90;999.90;;;22.90;99.90;;;;;;5031907;28;20446;-86
2022/10/23 11:30:12;;;;;;;1999.90;999.90;;;22.60;99.90;;;;;;5014010;28;20116;-88
2022/10/23 11:32:46;;;;;;;1999.90;999.90;;;22.60;99.90;;;;;;5031955;28;20029;-82
2022/10/23 11:35:32;;;;;;;1999.90;999.90;;;22.70;99.90;;;;;;5031355;28;20044;-87
2022/10/23 11:38:14;;;;;;;1999.90;999.90;;;22.70;99.90;;;;;;5013827;28;20067;-82
2022/10/23 11:40:52;;;;;;;1999.90;999.90;;;22.80;99.90;;;;;;5013823;28;20569;-83
2022/10/23 11:43:27;;;;;;;1999.90;999.90;;;22.90;99.90;;;;;;5031978;28;20044;-87
2022/10/23 11:45:52;;;;;;;1999.90;999.90;;;22.70;99.90;;;;;;5031472;28;20484;-85
2022/10/23 11:48:38;;;;;;;1999.90;999.90;;;22.70;99.90;;;;;;5011801;28;20022;-83
2022/10/23 11:51:04;;;;;;;1999.90;999.90;;;22.60;99.90;;;;;;5011901;28;20022;-89
2022/10/23 11:53:30;;;;;;;1999.90;999.90;;;22.60;99.90;;;;;;4994001;28;20046;-86
2022/10/23 11:56:01;;;;;;;1999.90;999.90;;;22.50;99.90;;;;;;5028466;28;20908;-85
2022/10/23 11:58:39;;;;;;;1999.90;999.90;;;22.50;99.90;;;;;;5051335;28;20037;-87
2022/10/23 12:01:29;;;;;;;1999.90;999.90;;;22.60;99.90;;;;;;5033392;28;20033;-86
2022/10/23 12:03:57;;;;;;;1999.90;999.90;;;22.60;99.90;;;;;;5051451;28;20036;-87
2022/10/23 12:06:41;;;;;;;1999.90;999.90;;;22.70;99.90;;;;;;5051324;28;20017;-82
2022/10/23 12:09:39;;;;;;;1999.90;999.90;;;22.60;99.90;;;;;;5051138;28;20021;-86
2022/10/23 12:12:08;;;;;;;1999.90;999.90;;;22.60;99.90;;;;;;5033074;28;20457;-84
2022/10/23 12:14:37;;;;;;;1999.90;999.90;;;22.70;99.90;;;;;;5044389;28;20067;-87
2022/10/23 12:17:27;;;;;;;1999.90;999.90;;;22.60;99.90;;;;;;5031092;28;20025;-85
2022/10/23 12:20:00;;;;;;;1999.90;999.90;;;22.80;99.90;;;;;;5035377;28;20025;-86